TAF MNBL
MNBL 272100Z 2800/2824 09010KT 9999 BKN019 TEMPO 2802/2808 7000 -RA BECMG 2812/2824 35012KT=
METAR MNBL
MNBL 272300Z 04004KT 9999 SCT020 SCT300 28/24 Q1011=
MNBL 272200Z 03004KT 9999 SCT019 SCT300 29/24 Q1010=
MNBL 272000Z 08004KT 9999 SCT018 30/24 Q1011=
MNBL 271900Z 09006KT 9999 SCT018 30/24 Q1011=
MNBL 271800Z 05006KT 9999 SCT019 SCT090 30/24 Q1013=
WC MNBL
WS MNBL
WV MNBL